Albany, NY (12205)

3:24 PM EDT on July 04, 2015 (GMT -0400)
South Colonie - Cook Park Area | | Change Station
CLOSE
Current Station
Personal Weather Station
Location: Colonie, NY
Elevation: 318 ft
Nearby Weather Stations

Elev 318 ft 42.71 °N, 73.84 °W | Updated 4 minutes ago

Overcast
Overcast
66.7 °F
Feels Like 66.7 °F
N
0.0
Wind Variable Wind from NNW
Gusts 2.2 mph

Today
High -- | Low -- °F
--% Chance of Precip.
Yesterday
High -- | Low -- °F
Precip. -- in
5:22 AM 8:36 PM
Waning Gibbous, 90% visible
Pressure 29.98 in
Visibility 7.0 miles
Clouds Scattered Clouds 1100 ft
Scattered Clouds 1400 ft
Overcast 6000 ft
Dew Point 66 °F
Humidity 98%
Rainfall 0.40 in
Snow Depth Not available.
UV 3 out of 12
Pollen 1.00 out of 12
Air Quality Not available.
Flu Activity Not available.
METAR KALB 041851Z 16005KT 7SM SCT011 SCT014 OVC060 19/17 A2998 RMK AO2 RAE24 SLP151 VCSH W-N P0000 T01940167

More Conditions Fewer Conditions

Pressure 29.98 in
Visibility 7.0 miles
Clouds Scattered Clouds 1100 ft
Scattered Clouds 1400 ft
Overcast 6000 ft
Dew Point 66 °F
Humidity 98%
Rainfall 0.40 in
Snow Depth Not available.
UV 3 out of 12
Pollen 1.00 out of 12
Air Quality Not available.
Flu Activity Not available.
METAR KALB 041851Z 16005KT 7SM SCT011 SCT014 OVC060 19/17 A2998 RMK AO2 RAE24 SLP151 VCSH W-N P0000 T01940167

More Conditions Fewer Conditions

10-Day Weather Forecast

×

Almanac

Astronomy

Jul. 04, 2015 Rise Set
Actual Time
Civil Twilight
Nautical Twilight
Astronomical Twilight
Moon
Length of Visible Light
Length of Day
Tomorrow will be .
, % of the Moon is Illuminated

Today's Extremes

State Highs State Lows

Community

WunderPhotos

Upload Photos

1,835,064 photos uploaded!

WunderBlogs® & News

Nearby

Air Quality

  Air Quality AQ Index Pollutant
Not available.

Snow Depth

Station Depth Elevation

Earthquake Activity

City Distance Mag. Time & Date
Minimum magnitude displayed is 2.5.

Coastal Water Temperatures

Place Temperature

Stations

Nearby Weather Stations

Station Location Temp. Windchill Dew Point Humidity Wind Precip. Elev Updated Type